createdAt,value
2023-03-27T00:00:44.649Z,78.02
2023-03-27T00:01:44.841Z,78.53
2023-03-27T00:02:45.056Z,78.53
2023-03-27T00:03:45.251Z,78.02
2023-03-27T00:04:45.412Z,78.22
2023-03-27T00:05:45.566Z,78.12
2023-03-27T00:06:45.730Z,78.22
2023-03-27T00:07:45.878Z,78.02
2023-03-27T00:08:46.025Z,78.12
2023-03-27T00:09:53.186Z,77.81
2023-03-27T00:10:46.415Z,78.12
2023-03-27T00:11:46.581Z,77.91
2023-03-27T00:12:46.723Z,77.81
2023-03-27T00:13:49.268Z,77.91
2023-03-27T00:14:47.049Z,77.91
2023-03-27T00:15:47.303Z,78.43
2023-03-27T00:16:47.519Z,78.64
2023-03-27T00:17:47.637Z,78.33
2023-03-27T00:18:47.752Z,78.33
2023-03-27T00:19:47.895Z,78.43
2023-03-27T00:20:48.058Z,78.74
2023-03-27T00:21:48.225Z,78.74
2023-03-27T00:22:48.389Z,79.16
2023-03-27T00:23:48.555Z,79.19
2023-03-27T00:24:48.702Z,79.09
2023-03-27T00:25:48.881Z,79.30
2023-03-27T00:26:49.063Z,79.09
2023-03-27T00:27:49.225Z,78.64
2023-03-27T00:28:49.368Z,78.36
2023-03-27T00:29:49.525Z,78.78
2023-03-27T00:30:49.732Z,78.57
2023-03-27T00:31:49.872Z,78.88
2023-03-27T00:32:50.033Z,78.99
2023-03-27T00:33:50.192Z,79.19
2023-03-27T00:34:50.330Z,79.23
2023-03-27T00:35:50.640Z,79.64
2023-03-27T00:36:50.797Z,79.64
2023-03-27T00:37:50.948Z,79.95
2023-03-27T00:38:51.104Z,79.74
2023-03-27T00:39:51.261Z,79.74
2023-03-27T00:40:51.421Z,79.85
2023-03-27T00:41:51.617Z,80.16
2023-03-27T00:42:51.751Z,80.26
2023-03-27T00:43:51.920Z,80.47
2023-03-27T00:44:52.085Z,80.57
2023-03-27T00:45:52.242Z,80.26
2023-03-27T00:46:52.385Z,80.16
2023-03-27T00:47:52.584Z,80.16
2023-03-27T00:48:52.740Z,79.95
2023-03-27T00:49:52.893Z,80.16
2023-03-27T00:50:53.056Z,80.26
2023-03-27T00:51:53.223Z,80.16
2023-03-27T00:52:53.401Z,80.16
2023-03-27T00:53:53.578Z,80.16
2023-03-27T00:54:53.724Z,80.47
2023-03-27T00:55:53.992Z,80.16
2023-03-27T00:56:54.206Z,80.26
2023-03-27T00:57:54.374Z,80.16
2023-03-27T00:58:54.535Z,80.16
2023-03-27T00:59:54.694Z,80.47
2023-03-27T01:00:55.266Z,80.36
2023-03-27T01:01:55.050Z,80.36
2023-03-27T01:02:55.279Z,80.68
2023-03-27T01:03:56.545Z,80.57
2023-03-27T01:04:55.673Z,80.68
2023-03-27T01:05:55.840Z,80.88
2023-03-27T01:06:56.023Z,80.68
2023-03-27T01:08:00.672Z,80.68
2023-03-27T01:08:57.410Z,80.78
2023-03-27T01:09:56.592Z,81.09
2023-03-27T01:10:56.914Z,80.88
2023-03-27T01:11:56.996Z,80.99
2023-03-27T01:12:57.156Z,81.13
2023-03-27T01:13:57.315Z,81.44
2023-03-27T01:14:57.477Z,81.44
2023-03-27T01:15:57.667Z,81.65
2023-03-27T01:16:57.828Z,81.65
2023-03-27T01:17:58.060Z,81.96
2023-03-27T01:18:58.140Z,81.96
2023-03-27T01:19:58.406Z,82.17
2023-03-27T01:20:58.579Z,82.17
2023-03-27T01:21:58.774Z,82.58
2023-03-27T01:22:58.940Z,82.68
2023-03-27T01:24:00.750Z,82.72
2023-03-27T01:24:59.284Z,83.00
2023-03-27T01:25:59.449Z,83.10
2023-03-27T01:26:59.615Z,83.10
2023-03-27T01:27:59.779Z,83.20
2023-03-27T01:28:59.930Z,83.31
2023-03-27T01:30:00.110Z,83.34
2023-03-27T01:31:00.279Z,83.14
2023-03-27T01:32:00.418Z,83.24
2023-03-27T01:33:00.604Z,83.14
2023-03-27T01:34:00.777Z,83.45
2023-03-27T01:35:03.497Z,83.24
2023-03-27T01:36:01.207Z,83.34
2023-03-27T01:37:01.350Z,83.24
2023-03-27T01:38:01.517Z,83.34
2023-03-27T01:39:01.736Z,83.20
2023-03-27T01:40:01.872Z,83.14
2023-03-27T01:41:02.025Z,83.14
2023-03-27T01:42:02.205Z,83.34
2023-03-27T01:43:02.356Z,83.86
2023-03-27T01:44:02.533Z,83.55
2023-03-27T01:45:02.707Z,83.62
2023-03-27T01:46:02.859Z,83.72
2023-03-27T01:47:03.049Z,83.62
2023-03-27T01:48:03.286Z,83.41
2023-03-27T01:49:03.412Z,83.20
2023-03-27T01:50:03.584Z,83.00
2023-03-27T01:51:03.735Z,83.10
2023-03-27T01:52:03.906Z,83.31
2023-03-27T01:53:04.073Z,83.10
2023-03-27T01:54:04.237Z,82.79
2023-03-27T01:55:04.381Z,82.58
2023-03-27T01:56:04.548Z,82.48
2023-03-27T01:57:04.742Z,82.48
2023-03-27T01:58:04.879Z,82.48
2023-03-27T01:59:05.037Z,82.37
2023-03-27T02:00:18.760Z,82.48
2023-03-27T02:01:06.549Z,82.58
2023-03-27T02:02:05.545Z,82.68
2023-03-27T02:03:05.775Z,82.72
2023-03-27T02:04:05.913Z,82.72
2023-03-27T02:05:06.076Z,83.03
2023-03-27T02:06:06.208Z,83.24
2023-03-27T02:07:06.381Z,83.03
2023-03-27T02:08:06.568Z,83.14
2023-03-27T02:09:06.709Z,83.31
2023-03-27T02:10:06.872Z,82.93
2023-03-27T02:11:07.028Z,83.10
2023-03-27T02:12:07.230Z,82.62
2023-03-27T02:13:07.366Z,82.72
2023-03-27T02:14:07.527Z,82.93
2023-03-27T02:15:23.288Z,83.24
2023-03-27T02:16:08.877Z,83.03
2023-03-27T02:17:08.038Z,82.93
2023-03-27T02:18:08.195Z,82.93
2023-03-27T02:19:08.346Z,82.93
2023-03-27T02:20:08.524Z,82.31
2023-03-27T02:21:08.677Z,82.72
2023-03-27T02:22:08.862Z,82.93
2023-03-27T02:23:09.008Z,82.72
2023-03-27T02:24:09.202Z,82.93
2023-03-27T02:25:09.350Z,83.14
2023-03-27T02:26:09.518Z,83.24
2023-03-27T02:27:09.736Z,83.14
2023-03-27T02:28:09.927Z,82.72
2023-03-27T02:29:10.084Z,82.62
2023-03-27T02:30:10.255Z,82.72
2023-03-27T02:31:32.720Z,82.72
2023-03-27T02:32:11.790Z,82.72
2023-03-27T02:33:10.851Z,82.31
2023-03-27T02:34:10.992Z,81.72
2023-03-27T02:35:11.162Z,82.03
2023-03-27T02:36:11.402Z,82.20
2023-03-27T02:37:11.542Z,82.20
2023-03-27T02:38:11.749Z,81.99
2023-03-27T02:39:11.906Z,81.30
2023-03-27T02:40:12.059Z,81.10
2023-03-27T02:41:12.220Z,81.41
2023-03-27T02:42:12.392Z,81.72
2023-03-27T02:43:12.567Z,81.51
2023-03-27T02:44:12.721Z,80.99
2023-03-27T02:45:12.894Z,79.96
2023-03-27T02:46:13.106Z,79.65
2023-03-27T02:47:13.247Z,79.65
2023-03-27T02:48:13.438Z,79.55
2023-03-27T02:49:13.597Z,79.58
2023-03-27T02:50:13.770Z,79.38
2023-03-27T02:51:14.496Z,79.69
2023-03-27T02:52:14.115Z,80.10
2023-03-27T02:53:14.300Z,80.21
2023-03-27T02:54:14.478Z,80.62
2023-03-27T02:55:14.658Z,80.31
2023-03-27T02:56:14.844Z,80.14
2023-03-27T02:57:15.159Z,80.14
2023-03-27T02:58:15.245Z,79.61
2023-03-27T02:59:15.475Z,80.04
2023-03-27T03:00:15.645Z,79.93
2023-03-27T03:01:15.842Z,80.49
2023-03-27T03:02:16.065Z,81.01
2023-03-27T03:03:16.373Z,81.01
2023-03-27T03:04:16.401Z,81.11
2023-03-27T03:05:16.591Z,81.52
2023-03-27T03:06:16.758Z,81.42
2023-03-27T03:07:16.954Z,80.55
2023-03-27T03:08:17.142Z,79.83
2023-03-27T03:09:17.324Z,79.51
2023-03-27T03:10:17.498Z,79.10
2023-03-27T03:11:17.682Z,79.20
2023-03-27T03:12:17.881Z,79.41
2023-03-27T03:13:18.066Z,78.99
2023-03-27T03:14:18.245Z,78.99
2023-03-27T03:15:18.451Z,78.65
2023-03-27T03:16:18.674Z,79.10
2023-03-27T03:17:18.824Z,79.58
2023-03-27T03:18:19.024Z,78.96
2023-03-27T03:19:19.197Z,78.86
2023-03-27T03:20:19.370Z,78.27
2023-03-27T03:21:19.535Z,78.78
2023-03-27T03:22:20.177Z,78.58
2023-03-27T03:23:19.944Z,78.68
2023-03-27T03:24:20.119Z,78.58
2023-03-27T03:25:20.294Z,78.78
2023-03-27T03:26:20.468Z,78.78
2023-03-27T03:27:20.657Z,79.10
2023-03-27T03:28:20.842Z,79.10
2023-03-27T03:29:21.036Z,79.44
2023-03-27T03:30:21.235Z,79.76
2023-03-27T03:31:21.409Z,79.86
2023-03-27T03:32:21.619Z,80.07
2023-03-27T03:33:21.784Z,80.24
2023-03-27T03:34:21.938Z,79.93
2023-03-27T03:35:22.216Z,80.04
2023-03-27T03:36:22.366Z,80.18
2023-03-27T03:37:22.562Z,80.28
2023-03-27T03:38:22.735Z,80.07
2023-03-27T03:39:22.926Z,80.18
2023-03-27T03:40:23.094Z,80.80
2023-03-27T03:41:23.271Z,80.90
2023-03-27T03:42:24.115Z,81.52
2023-03-27T03:43:23.680Z,81.73
2023-03-27T03:44:23.861Z,81.73
2023-03-27T03:45:24.045Z,81.73
2023-03-27T03:46:24.258Z,81.63
2023-03-27T03:47:24.459Z,81.32
2023-03-27T03:48:24.624Z,81.46
2023-03-27T03:49:24.805Z,81.87
2023-03-27T03:50:24.981Z,82.18
2023-03-27T03:51:25.162Z,81.87
2023-03-27T03:52:25.337Z,82.29
2023-03-27T03:53:25.530Z,82.29
2023-03-27T03:54:25.711Z,82.29
2023-03-27T03:55:25.906Z,82.43
2023-03-27T03:56:26.060Z,82.53
2023-03-27T03:57:26.234Z,82.84
2023-03-27T03:58:34.497Z,82.84
2023-03-27T03:59:27.571Z,82.74
2023-03-27T04:00:26.773Z,82.53
2023-03-27T04:01:26.965Z,82.53
2023-03-27T04:02:27.204Z,82.12
2023-03-27T04:03:27.445Z,82.32
2023-03-27T04:04:27.518Z,82.32
2023-03-27T04:05:27.718Z,82.36
2023-03-27T04:06:27.906Z,82.68
2023-03-27T04:07:28.110Z,82.99
2023-03-27T04:08:28.322Z,83.09
2023-03-27T04:10:27.337Z,82.99
2023-03-27T04:11:27.434Z,82.89
2023-03-27T04:12:28.048Z,82.89
2023-03-27T04:13:27.715Z,82.89
2023-03-27T04:14:27.817Z,83.20
2023-03-27T04:15:27.945Z,83.09
2023-03-27T04:16:28.058Z,83.20
2023-03-27T04:17:28.255Z,83.34
2023-03-27T04:18:28.486Z,83.75
2023-03-27T04:19:28.554Z,83.65
2023-03-27T04:20:28.661Z,83.44
2023-03-27T04:21:28.789Z,83.75
2023-03-27T04:22:28.893Z,83.65
2023-03-27T04:23:29.051Z,83.65
2023-03-27T04:24:29.172Z,83.54
2023-03-27T04:25:29.331Z,83.44
2023-03-27T04:26:29.572Z,83.34
2023-03-27T04:27:29.618Z,83.03
2023-03-27T04:28:29.777Z,82.92
2023-03-27T04:29:29.928Z,82.92
2023-03-27T04:30:30.068Z,82.82
2023-03-27T04:31:30.409Z,83.03
2023-03-27T04:32:30.373Z,83.03
2023-03-27T04:33:30.896Z,82.40
2023-03-27T04:34:30.685Z,82.20
2023-03-27T04:35:30.847Z,82.40
2023-03-27T04:36:31.404Z,82.30
2023-03-27T04:37:31.252Z,81.57
2023-03-27T04:38:31.336Z,81.46
2023-03-27T04:39:31.545Z,81.46
2023-03-27T04:40:31.700Z,81.57
2023-03-27T04:41:31.844Z,81.67
2023-03-27T04:42:31.968Z,81.57
2023-03-27T04:43:32.121Z,81.67
2023-03-27T04:44:32.254Z,81.88
2023-03-27T04:45:32.419Z,81.77
2023-03-27T04:46:32.546Z,81.67
2023-03-27T04:47:32.718Z,81.98
2023-03-27T04:48:32.833Z,82.30
2023-03-27T04:49:32.966Z,82.51
2023-03-27T04:50:33.148Z,82.71
2023-03-27T04:51:33.269Z,82.92
2023-03-27T04:52:33.432Z,82.92
2023-03-27T04:53:33.558Z,83.13
2023-03-27T04:54:33.692Z,83.23
2023-03-27T04:55:33.818Z,83.44
2023-03-27T04:56:33.963Z,83.34
2023-03-27T04:57:34.097Z,83.65
2023-03-27T04:58:36.852Z,83.34
2023-03-27T04:59:34.361Z,83.13
2023-03-27T05:00:34.457Z,83.17
2023-03-27T05:01:34.611Z,83.37
2023-03-27T05:02:34.712Z,83.37
2023-03-27T05:03:35.278Z,83.17
2023-03-27T05:04:35.016Z,83.37
2023-03-27T05:05:35.186Z,83.48
2023-03-27T05:06:35.298Z,83.06
2023-03-27T05:07:35.425Z,82.96
2023-03-27T05:08:35.544Z,82.96
2023-03-27T05:09:35.648Z,82.86
2023-03-27T05:10:35.776Z,82.96
2023-03-27T05:11:35.895Z,82.96
2023-03-27T05:12:36.013Z,82.86
2023-03-27T05:13:36.168Z,82.96
2023-03-27T05:14:36.284Z,83.17
2023-03-27T05:15:36.436Z,83.48
2023-03-27T05:16:36.584Z,83.17
2023-03-27T05:17:36.742Z,83.17
2023-03-27T05:18:36.843Z,82.75
2023-03-27T05:19:37.945Z,82.86
2023-03-27T05:20:37.072Z,82.75
2023-03-27T05:21:37.201Z,82.86
2023-03-27T05:22:37.315Z,82.86
2023-03-27T05:23:37.481Z,83.17
2023-03-27T05:24:37.602Z,83.17
2023-03-27T05:25:37.720Z,83.48
2023-03-27T05:26:38.563Z,83.80
2023-03-27T05:27:37.955Z,83.69
2023-03-27T05:28:38.087Z,83.80
2023-03-27T05:29:46.987Z,84.00
2023-03-27T05:30:39.349Z,83.69
2023-03-27T05:31:38.461Z,83.58
2023-03-27T05:32:38.644Z,83.69
2023-03-27T05:33:38.770Z,83.58
2023-03-27T05:34:38.992Z,83.37
2023-03-27T05:35:39.008Z,83.37
2023-03-27T05:36:39.173Z,83.48
2023-03-27T05:37:39.310Z,83.58
2023-03-27T05:38:39.446Z,83.54
2023-03-27T05:39:39.570Z,83.44
2023-03-27T05:40:39.688Z,83.65
2023-03-27T05:41:39.829Z,83.34
2023-03-27T05:42:39.938Z,83.34
2023-03-27T05:43:40.122Z,82.78
2023-03-27T05:44:40.222Z,82.57
2023-03-27T05:45:40.336Z,82.36
2023-03-27T05:46:40.510Z,81.91
2023-03-27T05:47:40.656Z,81.35
2023-03-27T05:48:40.787Z,81.04
2023-03-27T05:49:40.912Z,79.76
2023-03-27T05:50:41.020Z,79.34
2023-03-27T05:51:47.146Z,79.44
2023-03-27T05:52:42.225Z,78.68
2023-03-27T05:53:41.324Z,78.13
2023-03-27T05:54:41.420Z,77.61
2023-03-27T05:55:41.525Z,76.95
2023-03-27T05:56:41.648Z,76.64
2023-03-27T05:57:41.705Z,76.29
2023-03-27T05:58:41.841Z,75.63
2023-03-27T05:59:41.963Z,74.71
2023-03-27T06:00:42.071Z,74.05
2023-03-27T06:01:42.138Z,73.84
2023-03-27T06:02:42.293Z,73.71
2023-03-27T06:03:42.489Z,73.05
2023-03-27T06:04:42.475Z,72.05
2023-03-27T06:05:42.543Z,71.64
2023-03-27T06:06:42.712Z,70.61
2023-03-27T06:07:43.594Z,70.19
2023-03-27T06:08:42.965Z,70.74
2023-03-27T06:09:43.129Z,70.92
2023-03-27T06:10:43.278Z,70.47
2023-03-27T06:11:43.448Z,69.57
2023-03-27T06:12:43.481Z,69.88
2023-03-27T06:13:43.615Z,69.98
2023-03-27T06:14:43.758Z,69.23
2023-03-27T06:15:43.910Z,68.48
2023-03-27T06:16:44.018Z,67.93
2023-03-27T06:17:44.186Z,67.07
2023-03-27T06:18:44.295Z,66.55
2023-03-27T06:19:48.881Z,66.42
2023-03-27T06:20:44.549Z,65.80
2023-03-27T06:21:44.783Z,65.56
2023-03-27T06:22:44.818Z,64.99
2023-03-27T06:23:44.874Z,64.09
2023-03-27T06:24:45.054Z,63.65
2023-03-27T06:25:45.096Z,63.00
2023-03-27T06:26:45.188Z,63.65
2023-03-27T06:27:45.323Z,63.21
2023-03-27T06:28:45.465Z,62.77
2023-03-27T06:29:45.452Z,62.63
2023-03-27T06:30:45.553Z,61.91
2023-03-27T06:31:45.684Z,62.02
2023-03-27T06:32:45.876Z,61.17
2023-03-27T06:33:45.924Z,60.86
2023-03-27T06:34:46.008Z,60.86
2023-03-27T06:35:53.020Z,60.75
2023-03-27T06:36:47.178Z,60.31
2023-03-27T06:37:46.758Z,61.40
2023-03-27T06:38:46.344Z,61.61
2023-03-27T06:39:46.405Z,60.99
2023-03-27T06:40:46.485Z,62.38
2023-03-27T06:41:46.560Z,64.43
2023-03-27T06:42:46.612Z,66.45
2023-03-27T06:43:46.683Z,66.86
2023-03-27T06:44:46.752Z,67.41
2023-03-27T06:45:46.826Z,68.16
2023-03-27T06:46:46.882Z,68.88
2023-03-27T06:47:53.943Z,68.71
2023-03-27T06:48:47.978Z,68.09
2023-03-27T06:49:47.023Z,68.54
2023-03-27T06:50:47.098Z,68.44
2023-03-27T06:51:47.202Z,67.88
2023-03-27T06:52:47.282Z,68.64
2023-03-27T06:53:47.341Z,69.16
2023-03-27T06:54:47.441Z,69.88
2023-03-27T06:55:47.530Z,70.22
2023-03-27T06:56:47.652Z,70.84
2023-03-27T06:57:47.725Z,71.39
2023-03-27T06:58:47.810Z,71.91
2023-03-27T06:59:47.902Z,71.94
2023-03-27T07:00:48.013Z,72.56
2023-03-27T07:01:48.162Z,72.46
2023-03-27T07:02:48.257Z,72.64
2023-03-27T07:03:48.332Z,72.53
2023-03-27T07:05:01.578Z,72.02
2023-03-27T07:05:49.571Z,72.02
2023-03-27T07:06:48.587Z,72.43
2023-03-27T07:07:49.410Z,71.57
2023-03-27T07:08:49.269Z,71.57
2023-03-27T07:09:48.866Z,68.88
2023-03-27T07:10:59.931Z,69.20
2023-03-27T07:11:50.022Z,68.72
2023-03-27T07:12:49.092Z,67.29
2023-03-27T07:13:49.180Z,63.71
2023-03-27T07:14:49.284Z,60.31
2023-03-27T07:15:49.368Z,59.54
2023-03-27T07:16:49.463Z,58.38
2023-03-27T07:17:49.713Z,56.30
2023-03-27T07:18:49.636Z,56.20
2023-03-27T07:19:49.735Z,56.74
2023-03-27T07:20:49.788Z,55.94
2023-03-27T07:21:50.155Z,58.07
2023-03-27T07:22:49.953Z,58.46
2023-03-27T07:23:49.998Z,56.43
2023-03-27T07:24:50.046Z,55.90
2023-03-27T07:25:50.343Z,55.15
2023-03-27T07:26:50.150Z,54.64
2023-03-27T07:27:50.201Z,56.20
2023-03-27T07:28:50.234Z,57.59
2023-03-27T07:29:50.275Z,60.50
2023-03-27T07:30:50.345Z,63.27
2023-03-27T07:32:50.462Z,63.12
2023-03-27T07:33:50.572Z,60.42
2023-03-27T07:34:50.635Z,61.07
2023-03-27T07:35:50.702Z,60.05
2023-03-27T07:36:50.781Z,60.99
2023-03-27T07:37:50.833Z,61.62
2023-03-27T07:38:50.846Z,59.28
2023-03-27T07:39:50.912Z,56.84
2023-03-27T07:40:50.951Z,56.97
2023-03-27T07:41:51.007Z,57.67
2023-03-27T07:42:51.046Z,59.52
2023-03-27T07:43:51.107Z,62.28
2023-03-27T07:44:51.152Z,63.99
2023-03-27T07:45:51.227Z,65.36
2023-03-27T07:46:51.220Z,65.94
2023-03-27T07:47:51.308Z,67.30
2023-03-27T07:48:51.319Z,68.03
2023-03-27T07:49:51.366Z,68.16
2023-03-27T07:50:52.909Z,68.44
2023-03-27T07:51:51.455Z,65.26
2023-03-27T07:52:51.497Z,63.13
2023-03-27T07:53:51.541Z,64.56
2023-03-27T07:54:51.616Z,65.97
2023-03-27T07:55:51.687Z,67.13
2023-03-27T07:56:51.859Z,67.65
2023-03-27T07:58:00.964Z,68.19
2023-03-27T07:58:52.962Z,68.54
2023-03-27T07:59:52.005Z,68.64
2023-03-27T08:00:52.097Z,68.74
2023-03-27T08:01:52.146Z,68.71
2023-03-27T08:02:52.314Z,68.40
2023-03-27T08:03:52.513Z,69.02
2023-03-27T08:04:52.521Z,67.68
2023-03-27T08:05:52.483Z,67.88
2023-03-27T08:06:52.558Z,67.27
2023-03-27T08:07:52.595Z,65.79
2023-03-27T08:08:52.695Z,66.00
2023-03-27T08:09:52.765Z,65.92
2023-03-27T08:10:52.825Z,65.62
2023-03-27T08:11:52.906Z,63.03
2023-03-27T08:12:52.968Z,61.40
2023-03-27T08:13:53.032Z,58.47
2023-03-27T08:14:53.114Z,59.37
2023-03-27T08:15:53.155Z,60.56
2023-03-27T08:16:55.833Z,61.93
2023-03-27T08:17:54.333Z,62.65
2023-03-27T08:18:53.357Z,62.88
2023-03-27T08:19:53.428Z,63.50
2023-03-27T08:20:53.485Z,61.38
2023-03-27T08:21:53.519Z,61.65
2023-03-27T08:22:53.578Z,61.49
2023-03-27T08:23:54.442Z,60.53
2023-03-27T08:24:53.733Z,60.84
2023-03-27T08:25:53.996Z,60.43
2023-03-27T08:26:53.889Z,60.87
2023-03-27T08:27:53.953Z,61.18
2023-03-27T08:28:54.047Z,61.38
2023-03-27T08:29:54.076Z,61.00
2023-03-27T08:30:54.187Z,61.54
2023-03-27T08:31:55.185Z,61.96
2023-03-27T08:32:54.358Z,62.92
2023-03-27T08:33:54.375Z,63.15
2023-03-27T08:34:54.416Z,63.15
2023-03-27T08:35:54.542Z,62.66
2023-03-27T08:36:54.558Z,62.46
2023-03-27T08:37:54.609Z,62.46
2023-03-27T08:38:54.723Z,62.79
2023-03-27T08:39:54.771Z,63.07
2023-03-27T08:40:54.826Z,62.69
2023-03-27T08:41:54.930Z,62.53
2023-03-27T08:42:54.995Z,61.44
2023-03-27T08:43:55.053Z,61.10
2023-03-27T08:44:55.126Z,61.00
2023-03-27T08:45:55.471Z,60.49
2023-03-27T08:46:55.374Z,60.79
2023-03-27T08:47:55.426Z,61.00
2023-03-27T08:48:55.470Z,60.93
2023-03-27T08:49:56.447Z,61.88
2023-03-27T08:50:55.618Z,62.50
2023-03-27T08:51:55.654Z,62.92
2023-03-27T08:52:55.837Z,63.01
2023-03-27T08:53:55.913Z,63.01
2023-03-27T08:54:55.982Z,61.02
2023-03-27T08:55:56.193Z,59.17
2023-03-27T08:56:56.187Z,57.49
2023-03-27T08:57:56.223Z,52.90
2023-03-27T08:58:56.293Z,51.54
2023-03-27T08:59:56.326Z,53.25
2023-03-27T09:00:56.360Z,55.36
2023-03-27T09:01:56.385Z,53.08
2023-03-27T09:02:56.490Z,53.00
2023-03-27T09:03:56.518Z,51.93
2023-03-27T09:04:56.531Z,51.23
2023-03-27T09:05:56.759Z,51.72
2023-03-27T09:06:56.649Z,51.59
2023-03-27T09:07:56.634Z,51.44
2023-03-27T09:08:56.650Z,52.39
2023-03-27T09:09:56.669Z,52.61
2023-03-27T09:10:56.682Z,51.79
2023-03-27T09:11:56.779Z,53.08
2023-03-27T09:12:56.845Z,54.13
2023-03-27T09:13:56.915Z,55.18
2023-03-27T09:14:56.918Z,55.82
2023-03-27T09:15:57.137Z,56.57
2023-03-27T09:16:57.045Z,57.10
2023-03-27T09:17:57.084Z,57.86
2023-03-27T09:18:57.099Z,58.47
2023-03-27T09:19:57.164Z,58.16
2023-03-27T09:20:57.161Z,57.75
2023-03-27T09:21:57.187Z,58.50
2023-03-27T09:22:57.231Z,58.81
2023-03-27T09:23:57.272Z,59.25
2023-03-27T09:24:57.331Z,59.35
2023-03-27T09:25:57.560Z,58.86
2023-03-27T09:27:06.812Z,58.53
2023-03-27T09:27:58.478Z,56.74
2023-03-27T09:28:57.530Z,55.23
2023-03-27T09:30:05.890Z,55.66
2023-03-27T09:30:58.607Z,55.82
2023-03-27T09:31:57.628Z,53.54
2023-03-27T09:32:57.734Z,50.90
2023-03-27T09:33:57.739Z,48.40
2023-03-27T09:34:57.865Z,47.94
2023-03-27T09:35:58.139Z,46.76
2023-03-27T09:36:57.920Z,47.15
2023-03-27T09:37:57.906Z,46.41
2023-03-27T09:38:57.936Z,45.78
2023-03-27T09:39:57.953Z,45.00
2023-03-27T09:40:57.947Z,43.94
2023-03-27T09:41:57.929Z,44.00
2023-03-27T09:42:57.927Z,43.51
2023-03-27T09:43:57.899Z,43.29
2023-03-27T09:44:57.872Z,42.88
2023-03-27T09:45:58.163Z,42.51
2023-03-27T09:46:57.859Z,44.31
2023-03-27T09:47:57.883Z,43.84
2023-03-27T09:48:57.834Z,43.84
2023-03-27T09:49:57.811Z,44.82
2023-03-27T09:50:58.003Z,46.11
2023-03-27T09:51:57.735Z,47.08
2023-03-27T09:52:57.777Z,48.50
2023-03-27T09:53:57.785Z,50.16
2023-03-27T09:54:57.756Z,49.17
2023-03-27T09:55:57.773Z,47.42
2023-03-27T09:56:57.794Z,45.29
2023-03-27T09:57:57.776Z,43.98
2023-03-27T09:58:57.767Z,43.20
2023-03-27T09:59:57.749Z,42.45
2023-03-27T10:00:57.958Z,41.00
2023-03-27T10:01:57.731Z,42.29
2023-03-27T10:02:57.737Z,42.85
2023-03-27T10:03:57.790Z,44.24
2023-03-27T10:04:57.744Z,45.02
2023-03-27T10:05:57.722Z,46.60
2023-03-27T10:06:57.707Z,47.97
2023-03-27T10:07:57.725Z,48.74
2023-03-27T10:08:57.741Z,49.48
2023-03-27T10:10:04.762Z,49.32
2023-03-27T10:10:58.042Z,50.04
2023-03-27T10:11:59.426Z,49.15
2023-03-27T10:12:59.417Z,47.59
2023-03-27T10:13:57.736Z,48.13
2023-03-27T10:14:57.766Z,49.07
2023-03-27T10:15:57.776Z,49.79
2023-03-27T10:16:57.818Z,49.71
2023-03-27T10:17:57.916Z,50.48
2023-03-27T10:18:57.891Z,51.09
2023-03-27T10:19:57.890Z,51.22
2023-03-27T10:20:58.109Z,51.96
2023-03-27T10:21:57.977Z,52.48
2023-03-27T10:22:58.003Z,52.17
2023-03-27T10:23:58.015Z,52.22
2023-03-27T10:24:58.021Z,51.17
2023-03-27T10:25:58.054Z,49.91
2023-03-27T10:26:58.096Z,48.86
2023-03-27T10:27:58.092Z,47.89
2023-03-27T10:28:58.117Z,46.37
2023-03-27T10:29:58.130Z,44.45
2023-03-27T10:30:58.421Z,42.49
2023-03-27T10:31:58.284Z,43.37
2023-03-27T10:32:58.302Z,41.37
2023-03-27T10:33:58.248Z,40.88
2023-03-27T10:34:58.369Z,39.91
2023-03-27T10:35:58.307Z,39.32
2023-03-27T10:36:58.211Z,38.81
2023-03-27T10:37:58.292Z,38.53
2023-03-27T10:38:58.266Z,38.63
2023-03-27T10:39:58.236Z,39.12
2023-03-27T10:40:58.447Z,38.81
2023-03-27T10:41:58.152Z,38.78
2023-03-27T10:42:58.115Z,37.83
2023-03-27T10:43:58.085Z,37.05
2023-03-27T10:44:58.015Z,37.73
2023-03-27T10:45:57.999Z,38.67
2023-03-27T10:46:57.980Z,38.56
2023-03-27T10:47:57.974Z,39.94
2023-03-27T10:48:57.876Z,40.35
2023-03-27T10:49:57.830Z,41.00
2023-03-27T10:50:58.123Z,42.45
2023-03-27T10:51:57.757Z,43.32
2023-03-27T10:52:57.792Z,44.24
2023-03-27T10:53:57.837Z,43.41
2023-03-27T10:54:57.704Z,42.33
2023-03-27T10:55:57.669Z,41.83
2023-03-27T10:56:57.698Z,41.51
2023-03-27T10:57:57.641Z,40.92
2023-03-27T10:58:57.600Z,39.42
2023-03-27T10:59:57.558Z,37.98
2023-03-27T11:00:57.703Z,37.48
2023-03-27T11:01:57.586Z,38.28
2023-03-27T11:02:57.676Z,39.28
2023-03-27T11:03:57.601Z,40.38
2023-03-27T11:04:57.554Z,42.05
2023-03-27T11:05:57.543Z,43.02
2023-03-27T11:06:57.506Z,43.85
2023-03-27T11:07:57.508Z,44.80
2023-03-27T11:08:57.501Z,45.93
2023-03-27T11:09:57.482Z,46.13
2023-03-27T11:10:57.684Z,44.79
2023-03-27T11:11:57.500Z,42.33
2023-03-27T11:12:57.495Z,39.79
2023-03-27T11:13:57.526Z,40.00
2023-03-27T11:14:57.507Z,40.16
2023-03-27T11:15:57.482Z,40.81
2023-03-27T11:16:57.483Z,40.56
2023-03-27T11:17:57.511Z,40.61
2023-03-27T11:18:57.439Z,39.72
2023-03-27T11:19:57.414Z,37.73
2023-03-27T11:20:57.583Z,37.07
2023-03-27T11:21:57.435Z,36.04
2023-03-27T11:22:57.399Z,37.19
2023-03-27T11:23:57.411Z,36.17
2023-03-27T11:24:57.314Z,37.10
2023-03-27T11:25:57.283Z,37.63
2023-03-27T11:26:57.236Z,38.53
2023-03-27T11:27:57.190Z,37.63
2023-03-27T11:28:57.139Z,36.93
2023-03-27T11:29:57.127Z,37.90
2023-03-27T11:30:57.388Z,39.25
2023-03-27T11:31:57.210Z,39.37
2023-03-27T11:32:57.134Z,38.62
2023-03-27T11:33:57.117Z,39.65
2023-03-27T11:34:57.081Z,39.04
2023-03-27T11:35:57.138Z,39.18
2023-03-27T11:36:57.090Z,39.89
2023-03-27T11:37:57.071Z,41.11
2023-03-27T11:38:57.011Z,41.30
2023-03-27T11:39:57.023Z,41.44
2023-03-27T11:40:57.194Z,40.45
2023-03-27T11:41:56.971Z,39.07
2023-03-27T11:42:56.935Z,37.73
2023-03-27T11:43:56.901Z,37.73
2023-03-27T11:44:56.877Z,37.61
2023-03-27T11:45:56.850Z,37.58
2023-03-27T11:46:56.784Z,37.54
2023-03-27T11:47:56.795Z,37.32
2023-03-27T11:48:56.697Z,36.65
2023-03-27T11:49:56.688Z,37.80
2023-03-27T11:50:56.921Z,39.15
2023-03-27T11:51:56.591Z,39.54
2023-03-27T11:52:56.536Z,38.79
2023-03-27T11:53:56.510Z,37.44
2023-03-27T11:54:56.430Z,36.59
2023-03-27T11:55:56.355Z,36.25
2023-03-27T11:56:56.381Z,34.94
2023-03-27T11:57:56.313Z,34.75
2023-03-27T11:58:56.258Z,35.06
2023-03-27T11:59:56.239Z,35.19
2023-03-27T12:00:56.309Z,35.41
2023-03-27T12:01:56.181Z,35.42
2023-03-27T12:02:56.219Z,36.25
2023-03-27T12:03:56.164Z,36.02
2023-03-27T12:04:55.964Z,34.58
2023-03-27T12:05:55.899Z,35.38
2023-03-27T12:06:57.043Z,34.63
2023-03-27T12:07:56.173Z,37.07
2023-03-27T12:08:55.777Z,41.04
2023-03-27T12:09:55.700Z,43.65
2023-03-27T12:10:55.936Z,45.23
2023-03-27T12:11:55.650Z,46.52
2023-03-27T12:12:55.615Z,49.95
2023-03-27T12:14:01.861Z,52.74
2023-03-27T12:14:56.534Z,54.95
2023-03-27T12:15:55.501Z,57.95
2023-03-27T12:16:55.531Z,59.01
2023-03-27T12:17:55.571Z,59.22
2023-03-27T12:19:03.981Z,58.29
2023-03-27T12:19:56.668Z,59.69
2023-03-27T12:20:55.682Z,54.18
2023-03-27T12:21:55.697Z,53.26
2023-03-27T12:22:55.695Z,52.26
2023-03-27T12:23:55.672Z,51.64
2023-03-27T12:24:59.699Z,50.20
2023-03-27T12:25:55.682Z,49.63
2023-03-27T12:26:55.668Z,46.28
2023-03-27T12:27:55.766Z,44.71
2023-03-27T12:28:55.744Z,43.24
2023-03-27T12:29:55.828Z,41.27
2023-03-27T12:30:55.983Z,40.40
2023-03-27T12:31:55.886Z,40.30
2023-03-27T12:32:57.195Z,39.84
2023-03-27T12:33:55.822Z,37.65
2023-03-27T12:34:55.781Z,36.14
2023-03-27T12:35:55.773Z,36.46
2023-03-27T12:36:55.711Z,36.96
2023-03-27T12:37:55.673Z,36.76
2023-03-27T12:38:55.617Z,37.57
2023-03-27T12:39:55.570Z,36.87
2023-03-27T12:40:55.683Z,37.95
2023-03-27T12:41:55.519Z,39.85
2023-03-27T12:42:55.463Z,40.20
2023-03-27T12:43:55.431Z,40.37
2023-03-27T12:44:55.371Z,40.64
2023-03-27T12:45:55.400Z,39.57
2023-03-27T12:46:55.280Z,37.65
2023-03-27T12:47:55.264Z,36.63
2023-03-27T12:48:55.191Z,36.78
2023-03-27T12:49:55.130Z,37.79
2023-03-27T12:50:55.372Z,35.94
2023-03-27T12:51:55.005Z,36.21
2023-03-27T12:52:54.938Z,34.89
2023-03-27T12:53:54.895Z,35.02
2023-03-27T12:54:54.818Z,36.04
2023-03-27T12:55:54.964Z,37.00